sensor_id;sensor_type;location;lat;lon;timestamp;pressure;altitude;pressure_sealevel;temperature;humidity
34328;BME280;20588;48.840;10.064;2023-05-08T00:00:33;96735.94;;;13.97;100.00
34328;BME280;20588;48.840;10.064;2023-05-08T00:02:59;96744.38;;;13.93;100.00
34328;BME280;20588;48.840;10.064;2023-05-08T00:05:25;96738.41;;;13.92;100.00
34328;BME280;20588;48.840;10.064;2023-05-08T00:07:51;96737.63;;;13.92;100.00
34328;BME280;20588;48.840;10.064;2023-05-08T00:10:18;96738.41;;;13.92;100.00
34328;BME280;20588;48.840;10.064;2023-05-08T00:12:44;96745.16;;;13.93;100.00
34328;BME280;20588;48.840;10.064;2023-05-08T00:15:10;96733.00;;;13.94;100.00
34328;BME280;20588;48.840;10.064;2023-05-08T00:17:36;96736.41;;;13.94;100.00
34328;BME280;20588;48.840;10.064;2023-05-08T00:20:03;96730.19;;;13.95;100.00
34328;BME280;20588;48.840;10.064;2023-05-08T00:22:29;96732.44;;;13.92;100.00
34328;BME280;20588;48.840;10.064;2023-05-08T00:24:55;96733.69;;;13.89;100.00
34328;BME280;20588;48.840;10.064;2023-05-08T00:27:21;96738.28;;;13.87;100.00
34328;BME280;20588;48.840;10.064;2023-05-08T00:29:47;96740.78;;;13.82;100.00
34328;BME280;20588;48.840;10.064;2023-05-08T00:32:14;96743.59;;;13.81;100.00
34328;BME280;20588;48.840;10.064;2023-05-08T00:34:40;96740.44;;;13.79;100.00
34328;BME280;20588;48.840;10.064;2023-05-08T00:37:06;96745.03;;;13.77;100.00
34328;BME280;20588;48.840;10.064;2023-05-08T00:39:32;96739.88;;;13.77;100.00
34328;BME280;20588;48.840;10.064;2023-05-08T00:41:58;96736.50;;;13.76;100.00
34328;BME280;20588;48.840;10.064;2023-05-08T00:44:25;96740.88;;;13.76;100.00
34328;BME280;20588;48.840;10.064;2023-05-08T00:46:51;96734.69;;;13.77;100.00
34328;BME280;20588;48.840;10.064;2023-05-08T00:49:17;96743.25;;;13.77;100.00
34328;BME280;20588;48.840;10.064;2023-05-08T00:51:46;96739.88;;;13.77;100.00
34328;BME280;20588;48.840;10.064;2023-05-08T00:54:13;96738.88;;;13.78;100.00
34328;BME280;20588;48.840;10.064;2023-05-08T00:56:40;96744.28;;;13.76;100.00
34328;BME280;20588;48.840;10.064;2023-05-08T00:59:14;96734.16;;;13.75;100.00
34328;BME280;20588;48.840;10.064;2023-05-08T01:01:43;96737.28;;;13.77;100.00
34328;BME280;20588;48.840;10.064;2023-05-08T01:04:10;96744.28;;;13.76;100.00
34328;BME280;20588;48.840;10.064;2023-05-08T01:06:36;96734.69;;;13.77;100.00
34328;BME280;20588;48.840;10.064;2023-05-08T01:09:02;96737.06;;;13.78;100.00
34328;BME280;20588;48.840;10.064;2023-05-08T01:14:35;96743.03;;;13.79;100.00
34328;BME280;20588;48.840;10.064;2023-05-08T01:20:08;96733.47;;;13.79;100.00
34328;BME280;20588;48.840;10.064;2023-05-08T01:23:00;96745.59;;;13.79;100.00
34328;BME280;20588;48.840;10.064;2023-05-08T01:31:04;96746.06;;;13.76;100.00
34328;BME280;20588;48.840;10.064;2023-05-08T01:36:28;96749.66;;;13.75;100.00
34328;BME280;20588;48.840;10.064;2023-05-08T01:39:21;96751.44;;;13.74;100.00
34328;BME280;20588;48.840;10.064;2023-05-08T01:42:03;96757.66;;;13.73;100.00
34328;BME280;20588;48.840;10.064;2023-05-08T01:44:40;96751.44;;;13.74;100.00
34328;BME280;20588;48.840;10.064;2023-05-08T01:47:10;96751.69;;;13.73;100.00
34328;BME280;20588;48.840;10.064;2023-05-08T01:49:48;96757.06;;;13.71;100.00
34328;BME280;20588;48.840;10.064;2023-05-08T01:52:21;96753.91;;;13.69;100.00
34328;BME280;20588;48.840;10.064;2023-05-08T01:55:04;96757.53;;;13.68;100.00
34328;BME280;20588;48.840;10.064;2023-05-08T01:57:35;96753.59;;;13.66;100.00
34328;BME280;20588;48.840;10.064;2023-05-08T02:00:03;96760.31;;;13.67;100.00
34328;BME280;20588;48.840;10.064;2023-05-08T02:02:30;96760.56;;;13.65;100.00
34328;BME280;20588;48.840;10.064;2023-05-08T02:04:57;96759.97;;;13.63;100.00
34328;BME280;20588;48.840;10.064;2023-05-08T02:07:26;96758.63;;;13.61;100.00
34328;BME280;20588;48.840;10.064;2023-05-08T02:09:53;96759.88;;;13.58;100.00
34328;BME280;20588;48.840;10.064;2023-05-08T02:12:20;96758.50;;;13.56;100.00
34328;BME280;20588;48.840;10.064;2023-05-08T02:14:48;96763.66;;;13.56;100.00
34328;BME280;20588;48.840;10.064;2023-05-08T02:17:16;96767.28;;;13.55;100.00
34328;BME280;20588;48.840;10.064;2023-05-08T02:19:44;96762.09;;;13.55;100.00
34328;BME280;20588;48.840;10.064;2023-05-08T02:22:11;96763.66;;;13.56;100.00
34328;BME280;20588;48.840;10.064;2023-05-08T02:24:38;96768.06;;;13.55;100.00
34328;BME280;20588;48.840;10.064;2023-05-08T02:27:06;96769.06;;;13.54;100.00
34328;BME280;20588;48.840;10.064;2023-05-08T02:29:35;96763.91;;;13.54;100.00
34328;BME280;20588;48.840;10.064;2023-05-08T02:32:03;96764.91;;;13.53;100.00
34328;BME280;20588;48.840;10.064;2023-05-08T02:34:30;96758.19;;;13.52;100.00
34328;BME280;20588;48.840;10.064;2023-05-08T02:36:57;96755.81;;;13.51;100.00
34328;BME280;20588;48.840;10.064;2023-05-08T02:39:25;96759.38;;;13.50;100.00
34328;BME280;20588;48.840;10.064;2023-05-08T02:41:55;96766.38;;;13.49;100.00
34328;BME280;20588;48.840;10.064;2023-05-08T02:44:21;96761.44;;;13.48;100.00
34328;BME280;20588;48.840;10.064;2023-05-08T02:46:57;96760.41;;;13.49;100.00
34328;BME280;20588;48.840;10.064;2023-05-08T02:52:27;96764.56;;;13.50;100.00
34328;BME280;20588;48.840;10.064;2023-05-08T02:55:00;96772.31;;;13.50;100.00
34328;BME280;20588;48.840;10.064;2023-05-08T03:00:30;96773.13;;;13.50;100.00
34328;BME280;20588;48.840;10.064;2023-05-08T03:03:08;96761.97;;;13.50;100.00
34328;BME280;20588;48.840;10.064;2023-05-08T03:05:37;96761.00;;;13.51;100.00
34328;BME280;20588;48.840;10.064;2023-05-08T03:08:17;96764.56;;;13.50;100.00
34328;BME280;20588;48.840;10.064;2023-05-08T03:10:47;96766.16;;;13.51;100.00
34328;BME280;20588;48.840;10.064;2023-05-08T03:13:16;96763.22;;;13.47;100.00
34328;BME280;20588;48.840;10.064;2023-05-08T03:18:20;96754.13;;;13.45;100.00
34328;BME280;20588;48.840;10.064;2023-05-08T03:20:50;96763.09;;;13.42;100.00
34328;BME280;20588;48.840;10.064;2023-05-08T03:23:19;96756.34;;;13.41;100.00
34328;BME280;20588;48.840;10.064;2023-05-08T03:25:46;96762.53;;;13.40;100.00
34328;BME280;20588;48.840;10.064;2023-05-08T03:28:14;96765.88;;;13.41;100.00
34328;BME280;20588;48.840;10.064;2023-05-08T03:30:41;96761.50;;;13.41;100.00
34328;BME280;20588;48.840;10.064;2023-05-08T03:33:08;96766.25;;;13.44;100.00
34328;BME280;20588;48.840;10.064;2023-05-08T03:35:37;96764.47;;;13.45;100.00
34328;BME280;20588;48.840;10.064;2023-05-08T03:38:04;96767.59;;;13.47;100.00
34328;BME280;20588;48.840;10.064;2023-05-08T03:40:31;96767.38;;;13.48;100.00
34328;BME280;20588;48.840;10.064;2023-05-08T03:43:01;96772.75;;;13.47;100.00
34328;BME280;20588;48.840;10.064;2023-05-08T03:45:30;96773.78;;;13.46;100.00
34328;BME280;20588;48.840;10.064;2023-05-08T03:47:59;96774.34;;;13.48;100.00
34328;BME280;20588;48.840;10.064;2023-05-08T03:50:26;96771.78;;;13.48;100.00
34328;BME280;20588;48.840;10.064;2023-05-08T03:52:53;96772.91;;;13.52;100.00
34328;BME280;20588;48.840;10.064;2023-05-08T03:55:19;96775.03;;;13.55;100.00
34328;BME280;20588;48.840;10.064;2023-05-08T03:57:55;96772.38;;;13.61;100.00
34328;BME280;20588;48.840;10.064;2023-05-08T04:03:31;96776.16;;;13.59;100.00
34328;BME280;20588;48.840;10.064;2023-05-08T04:06:27;96782.13;;;13.59;100.00
34328;BME280;20588;48.840;10.064;2023-05-08T04:09:07;96778.66;;;13.65;100.00
34328;BME280;20588;48.840;10.064;2023-05-08T04:11:43;96784.94;;;13.58;100.00
34328;BME280;20588;48.840;10.064;2023-05-08T04:14:15;96789.88;;;13.59;100.00
34328;BME280;20588;48.840;10.064;2023-05-08T04:16:49;96794.91;;;13.54;100.00
34328;BME280;20588;48.840;10.064;2023-05-08T04:19:22;96797.19;;;13.51;100.00
34328;BME280;20588;48.840;10.064;2023-05-08T04:21:50;96801.91;;;13.54;100.00
34328;BME280;20588;48.840;10.064;2023-05-08T04:24:21;96793.94;;;13.55;100.00
34328;BME280;20588;48.840;10.064;2023-05-08T04:26:48;96800.28;;;13.82;100.00
34328;BME280;20588;48.840;10.064;2023-05-08T04:29:14;96801.72;;;13.67;100.00
34328;BME280;20588;48.840;10.064;2023-05-08T04:31:41;96803.41;;;13.61;100.00
34328;BME280;20588;48.840;10.064;2023-05-08T04:34:08;96793.81;;;13.62;100.00
34328;BME280;20588;48.840;10.064;2023-05-08T04:36:34;96799.03;;;13.73;100.00
34328;BME280;20588;48.840;10.064;2023-05-08T04:39:00;96806.88;;;13.67;100.00
34328;BME280;20588;48.840;10.064;2023-05-08T04:41:26;96804.28;;;13.67;100.00
34328;BME280;20588;48.840;10.064;2023-05-08T04:43:53;96813.63;;;13.68;100.00
34328;BME280;20588;48.840;10.064;2023-05-08T04:46:19;96809.97;;;13.98;100.00
34328;BME280;20588;48.840;10.064;2023-05-08T04:48:45;96820.19;;;13.82;100.00
34328;BME280;20588;48.840;10.064;2023-05-08T04:51:11;96816.97;;;13.98;100.00
34328;BME280;20588;48.840;10.064;2023-05-08T04:53:37;96819.28;;;13.88;100.00
34328;BME280;20588;48.840;10.064;2023-05-08T04:56:03;96820.72;;;13.72;100.00
34328;BME280;20588;48.840;10.064;2023-05-08T04:58:30;96822.19;;;13.68;100.00
34328;BME280;20588;48.840;10.064;2023-05-08T05:00:56;96820.72;;;13.72;100.00
34328;BME280;20588;48.840;10.064;2023-05-08T05:03:22;96828.53;;;13.95;100.00
34328;BME280;20588;48.840;10.064;2023-05-08T05:05:48;96831.88;;;13.84;100.00
34328;BME280;20588;48.840;10.064;2023-05-08T05:08:14;96836.28;;;13.84;100.00
34328;BME280;20588;48.840;10.064;2023-05-08T05:10:40;96832.81;;;13.90;100.00
34328;BME280;20588;48.840;10.064;2023-05-08T05:13:06;96833.28;;;14.10;100.00
34328;BME280;20588;48.840;10.064;2023-05-08T05:15:32;96831.19;;;13.89;100.00
34328;BME280;20588;48.840;10.064;2023-05-08T05:17:58;96842.88;;;13.80;100.00
34328;BME280;20588;48.840;10.064;2023-05-08T05:20:24;96836.81;;;13.74;100.00
34328;BME280;20588;48.840;10.064;2023-05-08T05:22:50;96838.59;;;13.74;100.00
34328;BME280;20588;48.840;10.064;2023-05-08T05:25:16;96835.13;;;13.80;100.00
34328;BME280;20588;48.840;10.064;2023-05-08T05:27:42;96836.41;;;14.00;100.00
34328;BME280;20588;48.840;10.064;2023-05-08T05:30:08;96841.91;;;13.92;100.00
34328;BME280;20588;48.840;10.064;2023-05-08T05:32:34;96833.34;;;13.92;100.00
34328;BME280;20588;48.840;10.064;2023-05-08T05:35:00;96843.28;;;13.95;100.00
34328;BME280;20588;48.840;10.064;2023-05-08T05:37:26;96843.50;;;14.05;100.00
34328;BME280;20588;48.840;10.064;2023-05-08T05:39:52;96836.88;;;14.09;100.00
34328;BME280;20588;48.840;10.064;2023-05-08T05:42:18;96848.69;;;14.16;100.00
34328;BME280;20588;48.840;10.064;2023-05-08T05:44:44;96844.66;;;14.20;100.00
34328;BME280;20588;48.840;10.064;2023-05-08T05:47:10;96848.53;;;14.29;100.00
34328;BME280;20588;48.840;10.064;2023-05-08T05:49:37;96851.78;;;14.25;100.00
34328;BME280;20588;48.840;10.064;2023-05-08T05:52:04;96846.81;;;14.35;100.00
34328;BME280;20588;48.840;10.064;2023-05-08T05:54:30;96852.44;;;14.43;100.00
34328;BME280;20588;48.840;10.064;2023-05-08T05:56:56;96859.22;;;14.68;100.00
34328;BME280;20588;48.840;10.064;2023-05-08T05:59:22;96853.00;;;14.69;100.00
34328;BME280;20588;48.840;10.064;2023-05-08T06:01:48;96852.66;;;14.65;100.00
34328;BME280;20588;48.840;10.064;2023-05-08T06:04:14;96858.53;;;14.72;100.00
34328;BME280;20588;48.840;10.064;2023-05-08T06:06:40;96855.13;;;14.83;100.00
34328;BME280;20588;48.840;10.064;2023-05-08T06:09:06;96857.47;;;14.85;100.00
34328;BME280;20588;48.840;10.064;2023-05-08T06:11:32;96858.47;;;14.95;100.00
34328;BME280;20588;48.840;10.064;2023-05-08T06:13:58;96859.41;;;14.89;100.00
34328;BME280;20588;48.840;10.064;2023-05-08T06:16:24;96858.50;;;14.84;100.00
34328;BME280;20588;48.840;10.064;2023-05-08T06:18:51;96857.63;;;14.78;100.00
34328;BME280;20588;48.840;10.064;2023-05-08T06:21:17;96864.72;;;14.71;100.00
34328;BME280;20588;48.840;10.064;2023-05-08T06:23:43;96861.97;;;14.89;100.00
34328;BME280;20588;48.840;10.064;2023-05-08T06:26:09;96867.16;;;15.01;100.00
34328;BME280;20588;48.840;10.064;2023-05-08T06:28:35;96858.78;;;15.10;100.00
34328;BME280;20588;48.840;10.064;2023-05-08T06:31:01;96863.16;;;15.21;100.00
34328;BME280;20588;48.840;10.064;2023-05-08T06:33:27;96861.22;;;15.40;100.00
34328;BME280;20588;48.840;10.064;2023-05-08T06:35:53;96862.81;;;15.29;100.00
34328;BME280;20588;48.840;10.064;2023-05-08T06:38:19;96867.72;;;15.54;100.00
34328;BME280;20588;48.840;10.064;2023-05-08T06:40:45;96868.25;;;15.56;100.00
34328;BME280;20588;48.840;10.064;2023-05-08T06:43:12;96872.09;;;15.53;100.00
34328;BME280;20588;48.840;10.064;2023-05-08T06:45:39;96871.81;;;15.66;100.00
34328;BME280;20588;48.840;10.064;2023-05-08T06:48:05;96874.06;;;15.91;100.00
34328;BME280;20588;48.840;10.064;2023-05-08T06:50:31;96868.88;;;16.24;100.00
34328;BME280;20588;48.840;10.064;2023-05-08T06:52:57;96875.97;;;16.62;98.29
34328;BME280;20588;48.840;10.064;2023-05-08T06:55:25;96870.47;;;17.18;94.61
34328;BME280;20588;48.840;10.064;2023-05-08T06:57:51;96872.53;;;17.59;92.61
34328;BME280;20588;48.840;10.064;2023-05-08T07:00:17;96868.75;;;17.71;90.23
34328;BME280;20588;48.840;10.064;2023-05-08T07:02:43;96873.22;;;17.49;88.56
34328;BME280;20588;48.840;10.064;2023-05-08T07:05:09;96871.34;;;17.45;91.62
34328;BME280;20588;48.840;10.064;2023-05-08T07:07:35;96877.97;;;17.36;93.94
34328;BME280;20588;48.840;10.064;2023-05-08T07:10:02;96879.06;;;17.40;91.52
34328;BME280;20588;48.840;10.064;2023-05-08T07:12:28;96874.59;;;17.57;88.49
34328;BME280;20588;48.840;10.064;2023-05-08T07:14:54;96878.94;;;17.73;90.83
34328;BME280;20588;48.840;10.064;2023-05-08T07:17:20;96872.69;;;17.74;87.43
34328;BME280;20588;48.840;10.064;2023-05-08T07:19:49;96876.06;;;17.48;89.41
34328;BME280;20588;48.840;10.064;2023-05-08T07:22:16;96878.13;;;17.46;89.63
34328;BME280;20588;48.840;10.064;2023-05-08T07:24:42;96879.53;;;17.58;92.02
34328;BME280;20588;48.840;10.064;2023-05-08T07:27:08;96882.41;;;17.57;87.45
34328;BME280;20588;48.840;10.064;2023-05-08T07:29:34;96882.34;;;17.52;89.42
34328;BME280;20588;48.840;10.064;2023-05-08T07:32:01;96878.34;;;17.66;89.70
34328;BME280;20588;48.840;10.064;2023-05-08T07:34:27;96882.94;;;17.59;88.89
34328;BME280;20588;48.840;10.064;2023-05-08T07:36:53;96885.59;;;17.42;90.68
34328;BME280;20588;48.840;10.064;2023-05-08T07:39:19;96883.13;;;17.52;92.04
34328;BME280;20588;48.840;10.064;2023-05-08T07:41:45;96897.47;;;17.33;90.00
34328;BME280;20588;48.840;10.064;2023-05-08T07:44:11;96889.47;;;17.40;92.25
34328;BME280;20588;48.840;10.064;2023-05-08T07:46:37;96888.94;;;17.59;93.34
34328;BME280;20588;48.840;10.064;2023-05-08T07:49:03;96887.19;;;17.43;90.86
34328;BME280;20588;48.840;10.064;2023-05-08T07:51:30;96880.78;;;17.51;89.97
34328;BME280;20588;48.840;10.064;2023-05-08T07:53:57;96893.06;;;17.55;90.31
34328;BME280;20588;48.840;10.064;2023-05-08T07:56:23;96892.44;;;17.27;88.50
34328;BME280;20588;48.840;10.064;2023-05-08T07:58:49;96886.56;;;17.36;91.46
34328;BME280;20588;48.840;10.064;2023-05-08T08:01:15;96895.94;;;17.37;90.78
34328;BME280;20588;48.840;10.064;2023-05-08T08:03:45;96889.19;;;17.58;90.38
34328;BME280;20588;48.840;10.064;2023-05-08T08:06:12;96890.81;;;17.64;91.39
34328;BME280;20588;48.840;10.064;2023-05-08T08:08:38;96889.47;;;17.40;89.89
34328;BME280;20588;48.840;10.064;2023-05-08T08:11:05;96896.91;;;17.31;87.74
34328;BME280;20588;48.840;10.064;2023-05-08T08:13:31;96892.81;;;17.14;90.46
34328;BME280;20588;48.840;10.064;2023-05-08T08:15:59;96891.44;;;17.28;92.98
34328;BME280;20588;48.840;10.064;2023-05-08T08:18:25;96892.16;;;17.45;90.87
34328;BME280;20588;48.840;10.064;2023-05-08T08:20:51;96890.16;;;17.30;88.01
34328;BME280;20588;48.840;10.064;2023-05-08T08:23:17;96894.97;;;17.00;91.47
34328;BME280;20588;48.840;10.064;2023-05-08T08:25:43;96898.72;;;17.09;89.98
34328;BME280;20588;48.840;10.064;2023-05-08T08:28:09;96896.88;;;17.26;91.78
34328;BME280;20588;48.840;10.064;2023-05-08T08:30:35;96898.84;;;17.19;92.12
34328;BME280;20588;48.840;10.064;2023-05-08T08:33:01;96897.75;;;17.15;91.56
34328;BME280;20588;48.840;10.064;2023-05-08T08:35:28;96893.16;;;17.22;92.27
34328;BME280;20588;48.840;10.064;2023-05-08T08:37:55;96905.09;;;17.18;91.70
34328;BME280;20588;48.840;10.064;2023-05-08T08:40:22;96899.50;;;17.31;94.05
34328;BME280;20588;48.840;10.064;2023-05-08T08:42:48;96902.16;;;17.15;91.03
34328;BME280;20588;48.840;10.064;2023-05-08T08:45:14;96902.50;;;16.80;93.83
34328;BME280;20588;48.840;10.064;2023-05-08T08:47:44;96901.56;;;16.70;95.53
34328;BME280;20588;48.840;10.064;2023-05-08T08:50:12;96908.38;;;16.92;97.15
34328;BME280;20588;48.840;10.064;2023-05-08T08:52:47;96900.06;;;16.90;94.29
34328;BME280;20588;48.840;10.064;2023-05-08T08:55:17;96901.66;;;17.13;95.26
34328;BME280;20588;48.840;10.064;2023-05-08T09:00:21;96901.81;;;17.06;96.29
34328;BME280;20588;48.840;10.064;2023-05-08T09:02:48;96902.91;;;16.89;94.97
34328;BME280;20588;48.840;10.064;2023-05-08T09:05:15;96899.56;;;16.93;95.69
34328;BME280;20588;48.840;10.064;2023-05-08T09:07:42;96910.13;;;16.87;95.78
34328;BME280;20588;48.840;10.064;2023-05-08T09:10:09;96906.41;;;16.99;97.25
34328;BME280;20588;48.840;10.064;2023-05-08T09:12:40;96912.16;;;17.01;97.11
34328;BME280;20588;48.840;10.064;2023-05-08T09:15:06;96908.34;;;17.09;95.04
34328;BME280;20588;48.840;10.064;2023-05-08T09:17:33;96914.50;;;17.03;96.86
34328;BME280;20588;48.840;10.064;2023-05-08T09:19:59;96916.63;;;17.06;98.03
34328;BME280;20588;48.840;10.064;2023-05-08T09:22:26;96918.56;;;17.15;100.00
34328;BME280;20588;48.840;10.064;2023-05-08T09:24:59;96925.09;;;17.18;100.00
34328;BME280;20588;48.840;10.064;2023-05-08T09:27:28;96924.13;;;17.24;99.90
34328;BME280;20588;48.840;10.064;2023-05-08T09:30:08;96918.69;;;16.66;97.93
34328;BME280;20588;48.840;10.064;2023-05-08T09:32:40;96923.69;;;16.56;100.00
34328;BME280;20588;48.840;10.064;2023-05-08T09:35:08;96922.00;;;16.61;99.19
34328;BME280;20588;48.840;10.064;2023-05-08T09:37:38;96923.41;;;16.69;100.00
34328;BME280;20588;48.840;10.064;2023-05-08T09:40:18;96922.38;;;16.70;100.00
34328;BME280;20588;48.840;10.064;2023-05-08T09:42:46;96930.16;;;16.70;100.00
34328;BME280;20588;48.840;10.064;2023-05-08T09:47:51;96931.34;;;16.62;100.00
34328;BME280;20588;48.840;10.064;2023-05-08T09:50:17;96930.25;;;16.58;100.00
34328;BME280;20588;48.840;10.064;2023-05-08T09:52:46;96934.19;;;16.61;100.00
34328;BME280;20588;48.840;10.064;2023-05-08T09:55:13;96938.44;;;16.67;100.00
34328;BME280;20588;48.840;10.064;2023-05-08T09:57:54;96945.59;;;16.76;100.00
34328;BME280;20588;48.840;10.064;2023-05-08T10:00:23;96943.25;;;16.75;100.00
34328;BME280;20588;48.840;10.064;2023-05-08T10:03:02;96946.00;;;16.68;99.17
34328;BME280;20588;48.840;10.064;2023-05-08T10:05:31;96947.31;;;16.71;100.00
34328;BME280;20588;48.840;10.064;2023-05-08T10:08:21;96942.56;;;16.84;100.00
34328;BME280;20588;48.840;10.064;2023-05-08T10:10:47;96949.97;;;16.92;100.00
34328;BME280;20588;48.840;10.064;2023-05-08T10:13:13;96942.81;;;16.99;99.58
34328;BME280;20588;48.840;10.064;2023-05-08T10:15:43;96948.31;;;17.03;100.00
34328;BME280;20588;48.840;10.064;2023-05-08T10:18:10;96955.66;;;16.89;100.00
34328;BME280;20588;48.840;10.064;2023-05-08T10:20:40;96949.50;;;16.95;100.00
34328;BME280;20588;48.840;10.064;2023-05-08T10:23:09;96954.63;;;17.07;100.00
34328;BME280;20588;48.840;10.064;2023-05-08T10:25:45;96950.03;;;17.14;100.00
34328;BME280;20588;48.840;10.064;2023-05-08T10:28:28;96941.59;;;17.23;99.58
34328;BME280;20588;48.840;10.064;2023-05-08T10:30:59;96945.19;;;17.22;97.03
34328;BME280;20588;48.840;10.064;2023-05-08T10:33:30;96951.88;;;17.35;95.79
34328;BME280;20588;48.840;10.064;2023-05-08T10:35:57;96951.06;;;17.34;95.22
34328;BME280;20588;48.840;10.064;2023-05-08T10:38:23;96945.69;;;17.41;96.98
34328;BME280;20588;48.840;10.064;2023-05-08T10:40:50;96948.78;;;17.38;96.81
34328;BME280;20588;48.840;10.064;2023-05-08T10:43:18;96942.97;;;17.31;98.13
34328;BME280;20588;48.840;10.064;2023-05-08T10:45:45;96950.75;;;17.47;100.00
34328;BME280;20588;48.840;10.064;2023-05-08T10:51:13;96946.47;;;17.58;90.44
34328;BME280;20588;48.840;10.064;2023-05-08T10:54:03;96941.91;;;17.70;92.90
34328;BME280;20588;48.840;10.064;2023-05-08T10:56:31;96938.72;;;17.89;90.46
34328;BME280;20588;48.840;10.064;2023-05-08T10:58:58;96945.38;;;18.02;89.21
34328;BME280;20588;48.840;10.064;2023-05-08T11:01:25;96936.47;;;18.25;87.79
34328;BME280;20588;48.840;10.064;2023-05-08T11:03:51;96942.34;;;18.73;85.57
34328;BME280;20588;48.840;10.064;2023-05-08T11:09:07;96937.00;;;19.36;81.68
34328;BME280;20588;48.840;10.064;2023-05-08T11:11:38;96930.06;;;19.72;78.90
34328;BME280;20588;48.840;10.064;2023-05-08T11:19:19;96941.97;;;20.20;71.72
34328;BME280;20588;48.840;10.064;2023-05-08T11:22:15;96939.25;;;19.75;72.42
34328;BME280;20588;48.840;10.064;2023-05-08T11:24:54;96946.84;;;19.86;75.60
34328;BME280;20588;48.840;10.064;2023-05-08T11:35:46;96942.25;;;20.23;74.21
34328;BME280;20588;48.840;10.064;2023-05-08T11:40:53;96936.53;;;19.44;75.56
34328;BME280;20588;48.840;10.064;2023-05-08T11:48:31;96936.88;;;19.73;75.87
34328;BME280;20588;48.840;10.064;2023-05-08T11:50:59;96941.59;;;19.76;74.06
34328;BME280;20588;48.840;10.064;2023-05-08T11:53:26;96937.72;;;19.94;72.24
34328;BME280;20588;48.840;10.064;2023-05-08T11:55:52;96936.94;;;19.88;72.40
34328;BME280;20588;48.840;10.064;2023-05-08T11:58:19;96933.00;;;19.81;71.00
34328;BME280;20588;48.840;10.064;2023-05-08T12:00:46;96930.69;;;20.09;72.32
34328;BME280;20588;48.840;10.064;2023-05-08T12:03:14;96928.66;;;20.26;70.64
34328;BME280;20588;48.840;10.064;2023-05-08T12:05:41;96932.81;;;20.37;70.25
34328;BME280;20588;48.840;10.064;2023-05-08T12:08:08;96928.41;;;20.43;70.33
34328;BME280;20588;48.840;10.064;2023-05-08T12:10:55;96939.34;;;20.15;69.00
34328;BME280;20588;48.840;10.064;2023-05-08T12:13:27;96933.09;;;20.31;73.55
34328;BME280;20588;48.840;10.064;2023-05-08T12:15:58;96929.94;;;20.14;73.54
34328;BME280;20588;48.840;10.064;2023-05-08T12:18:26;96932.25;;;19.90;71.75
34328;BME280;20588;48.840;10.064;2023-05-08T12:20:53;96963.81;;;19.79;73.97
34328;BME280;20588;48.840;10.064;2023-05-08T12:23:22;96929.56;;;19.70;74.91
34328;BME280;20588;48.840;10.064;2023-05-08T12:25:51;96933.00;;;19.86;73.93
34328;BME280;20588;48.840;10.064;2023-05-08T12:28:18;96930.91;;;19.88;74.71
34328;BME280;20588;48.840;10.064;2023-05-08T12:30:45;96929.78;;;19.63;73.96
34328;BME280;20588;48.840;10.064;2023-05-08T12:33:11;96934.22;;;19.63;75.63
34328;BME280;20588;48.840;10.064;2023-05-08T12:35:38;96926.50;;;19.26;74.63
34328;BME280;20588;48.840;10.064;2023-05-08T12:38:08;96934.25;;;19.16;74.71
34328;BME280;20588;48.840;10.064;2023-05-08T12:40:41;96932.16;;;19.08;75.81
34328;BME280;20588;48.840;10.064;2023-05-08T12:43:08;96924.09;;;19.20;77.64
34328;BME280;20588;48.840;10.064;2023-05-08T12:45:37;96929.47;;;19.40;77.10
34328;BME280;20588;48.840;10.064;2023-05-08T12:48:14;96930.34;;;19.76;76.79
34328;BME280;20588;48.840;10.064;2023-05-08T12:50:44;96926.78;;;20.07;76.18
34328;BME280;20588;48.840;10.064;2023-05-08T12:53:15;96933.22;;;19.74;71.82
34328;BME280;20588;48.840;10.064;2023-05-08T12:55:51;96925.59;;;19.57;71.71
34328;BME280;20588;48.840;10.064;2023-05-08T12:58:18;96929.44;;;19.35;74.23
34328;BME280;20588;48.840;10.064;2023-05-08T13:00:49;96927.41;;;19.05;75.33
34328;BME280;20588;48.840;10.064;2023-05-08T13:03:27;96934.81;;;19.18;72.86
34328;BME280;20588;48.840;10.064;2023-05-08T13:05:54;96927.72;;;19.14;75.80
34328;BME280;20588;48.840;10.064;2023-05-08T13:08:32;96931.81;;;19.46;76.04
34328;BME280;20588;48.840;10.064;2023-05-08T13:10:59;96933.41;;;19.52;73.82
34328;BME280;20588;48.840;10.064;2023-05-08T13:13:29;96931.56;;;19.48;71.57
34328;BME280;20588;48.840;10.064;2023-05-08T13:15:55;96925.78;;;19.41;73.28
34328;BME280;20588;48.840;10.064;2023-05-08T13:18:25;96931.06;;;19.46;72.64
34328;BME280;20588;48.840;10.064;2023-05-08T13:20:52;96930.38;;;19.24;73.56
34328;BME280;20588;48.840;10.064;2023-05-08T13:23:18;96926.06;;;19.39;72.56
34328;BME280;20588;48.840;10.064;2023-05-08T13:25:44;96929.53;;;19.13;72.91
34328;BME280;20588;48.840;10.064;2023-05-08T13:28:10;96926.19;;;19.18;74.34
34328;BME280;20588;48.840;10.064;2023-05-08T13:30:37;96925.91;;;19.19;76.31
34328;BME280;20588;48.840;10.064;2023-05-08T13:33:04;96920.09;;;19.49;75.76
34328;BME280;20588;48.840;10.064;2023-05-08T13:35:30;96919.00;;;19.35;73.64
34328;BME280;20588;48.840;10.064;2023-05-08T13:37:57;96919.59;;;19.62;72.92
34328;BME280;20588;48.840;10.064;2023-05-08T13:40:24;96920.38;;;19.57;73.52
34328;BME280;20588;48.840;10.064;2023-05-08T13:42:50;96917.53;;;19.64;73.36
34328;BME280;20588;48.840;10.064;2023-05-08T13:45:16;96922.19;;;19.52;71.86
34328;BME280;20588;48.840;10.064;2023-05-08T13:47:47;96919.88;;;19.60;74.98
34328;BME280;20588;48.840;10.064;2023-05-08T13:50:15;96915.78;;;20.05;75.02